Details for Air France at LFPG




Go Back


Latest METAR
Local Time

LFPG 252200Z 02008KT 8000 -SHRA NSC 16/15 Q1017 TEMPO 2500 SHRA SCT030CB

26/05/2018, 00:25:56

Description
Results
Air France Logo
Number of Pilots based at LFPG
0 Pilots Based here
Number of Air France Flights Departed from LFPG
5 Flights Departed
Number of Air France Flights Arrived at LFPG
4 Flights Arrived
Number of Air France Schedules Departing from LFPG
296 Schedules
Number of Air France Schedules Arriving at LFPG
299 Schedules
Number of Air France Schedules Departing from LFPG availible today
247 Schedules Today
Number of Air France Schedules Arriving at LFPG availible today
253 Schedules Today
Average Landing Rate at LFPG
-229 fpm
Air France Average Landing Rate at LFPG
-297 fpm
Total Fuel Purchased at LFPG by Air France
19,162.92 kgs / 42,246.57 lbs

Pilots Based at LFPG


Pilot ID
Pilot Name
Pilot Rank
No. of Flights
No. of Flying Hours
There are no pilots assigned to this hub!   Will you be the first?
Content